sensor_id;sensor_type;location;lat;lon;timestamp;pressure;altitude;pressure_sealevel;temperature;humidity
21781;BME280;52576;53.614;9.894;2022-09-16T00:00:31;100025.25;;;10.65;100.00
21781;BME280;52576;53.614;9.894;2022-09-16T00:01:34;100017.22;;;10.65;100.00
21781;BME280;52576;53.614;9.894;2022-09-16T00:02:36;100027.13;;;10.65;100.00
21781;BME280;52576;53.614;9.894;2022-09-16T00:03:43;100021.19;;;10.63;100.00
21781;BME280;52576;53.614;9.894;2022-09-16T00:04:45;100023.03;;;10.62;100.00
21781;BME280;52576;53.614;9.894;2022-09-16T00:05:51;100019.53;;;10.62;100.00
21781;BME280;52576;53.614;9.894;2022-09-16T00:06:54;100022.22;;;10.62;100.00
21781;BME280;52576;53.614;9.894;2022-09-16T00:07:59;100025.72;;;10.62;100.00
21781;BME280;52576;53.614;9.894;2022-09-16T00:09:02;100019.75;;;10.60;100.00
21781;BME280;52576;53.614;9.894;2022-09-16T00:10:06;100022.44;;;10.60;100.00
21781;BME280;52576;53.614;9.894;2022-09-16T00:11:08;100018.13;;;10.59;100.00
21781;BME280;52576;53.614;9.894;2022-09-16T00:12:11;100027.78;;;10.60;100.00
21781;BME280;52576;53.614;9.894;2022-09-16T00:13:14;100031.50;;;10.59;100.00
21781;BME280;52576;53.614;9.894;2022-09-16T00:14:17;100026.16;;;10.59;100.00
21781;BME280;52576;53.614;9.894;2022-09-16T00:15:19;100028.00;;;10.59;100.00
21781;BME280;52576;53.614;9.894;2022-09-16T00:16:23;100026.38;;;10.58;100.00
21781;BME280;52576;53.614;9.894;2022-09-16T00:17:26;100034.19;;;10.59;100.00
21781;BME280;52576;53.614;9.894;2022-09-16T00:18:30;100030.69;;;10.59;100.00
21781;BME280;52576;53.614;9.894;2022-09-16T00:19:32;100026.16;;;10.59;100.00
21781;BME280;52576;53.614;9.894;2022-09-16T00:20:35;100023.25;;;10.61;100.00
21781;BME280;52576;53.614;9.894;2022-09-16T00:21:37;100025.94;;;10.61;100.00
21781;BME280;52576;53.614;9.894;2022-09-16T00:22:40;100021.19;;;10.63;100.00
21781;BME280;52576;53.614;9.894;2022-09-16T00:23:42;100022.81;;;10.64;100.00
21781;BME280;52576;53.614;9.894;2022-09-16T00:24:48;100014.56;;;10.65;100.00
21781;BME280;52576;53.614;9.894;2022-09-16T00:25:52;100012.50;;;10.67;100.00
21781;BME280;52576;53.614;9.894;2022-09-16T00:26:56;100014.13;;;10.68;100.00
21781;BME280;52576;53.614;9.894;2022-09-16T00:28:00;100021.72;;;10.71;100.00
21781;BME280;52576;53.614;9.894;2022-09-16T00:29:02;100024.16;;;10.73;100.00
21781;BME280;52576;53.614;9.894;2022-09-16T00:30:06;100023.94;;;10.74;100.00
21781;BME280;52576;53.614;9.894;2022-09-16T00:31:09;100036.03;;;10.77;100.00
21781;BME280;52576;53.614;9.894;2022-09-16T00:32:12;100032.31;;;10.78;100.00
21781;BME280;52576;53.614;9.894;2022-09-16T00:33:14;100031.50;;;10.77;100.00
21781;BME280;52576;53.614;9.894;2022-09-16T00:34:18;100042.34;;;10.82;100.00
21781;BME280;52576;53.614;9.894;2022-09-16T00:35:20;100042.94;;;10.84;100.00
21781;BME280;52576;53.614;9.894;2022-09-16T00:36:23;100049.91;;;10.85;100.00
21781;BME280;52576;53.614;9.894;2022-09-16T00:37:25;100065.75;;;10.87;100.00
21781;BME280;52576;53.614;9.894;2022-09-16T00:38:28;100062.88;;;10.88;100.00
21781;BME280;52576;53.614;9.894;2022-09-16T00:39:31;100060.19;;;10.88;100.00
21781;BME280;52576;53.614;9.894;2022-09-16T00:40:43;100042.28;;;10.89;100.00
21781;BME280;52576;53.614;9.894;2022-09-16T00:41:45;100036.31;;;10.87;100.00
21781;BME280;52576;53.614;9.894;2022-09-16T00:42:48;100034.47;;;10.87;100.00
21781;BME280;52576;53.614;9.894;2022-09-16T00:43:54;100027.50;;;10.86;100.00
21781;BME280;52576;53.614;9.894;2022-09-16T00:44:59;100030.19;;;10.86;100.00
21781;BME280;52576;53.614;9.894;2022-09-16T00:46:04;100034.09;;;10.84;100.00
21781;BME280;52576;53.614;9.894;2022-09-16T00:47:09;100026.91;;;10.84;100.00
21781;BME280;52576;53.614;9.894;2022-09-16T00:48:14;100034.31;;;10.82;100.00
21781;BME280;52576;53.614;9.894;2022-09-16T00:49:21;100024.69;;;10.81;100.00
21781;BME280;52576;53.614;9.894;2022-09-16T00:50:31;100034.78;;;10.79;100.00
21781;BME280;52576;53.614;9.894;2022-09-16T00:51:40;100037.69;;;10.78;100.00
21781;BME280;52576;53.614;9.894;2022-09-16T00:52:43;100043.25;;;10.76;100.00
21781;BME280;52576;53.614;9.894;2022-09-16T00:53:49;100035.69;;;10.73;100.00
21781;BME280;52576;53.614;9.894;2022-09-16T00:54:57;100029.50;;;10.73;100.00
21781;BME280;52576;53.614;9.894;2022-09-16T00:56:06;100042.06;;;10.72;100.00
21781;BME280;52576;53.614;9.894;2022-09-16T00:57:11;100041.03;;;10.73;100.00
21781;BME280;52576;53.614;9.894;2022-09-16T00:58:19;100040.44;;;10.71;100.00
21781;BME280;52576;53.614;9.894;2022-09-16T00:59:25;100041.22;;;10.72;100.00
21781;BME280;52576;53.614;9.894;2022-09-16T01:00:30;100046.56;;;10.72;100.00
21781;BME280;52576;53.614;9.894;2022-09-16T01:01:32;100041.22;;;10.72;100.00
21781;BME280;52576;53.614;9.894;2022-09-16T01:02:36;100051.13;;;10.71;100.00
21781;BME280;52576;53.614;9.894;2022-09-16T01:03:44;100044.13;;;10.70;100.00
21781;BME280;52576;53.614;9.894;2022-09-16T01:04:51;100045.78;;;10.71;100.00
21781;BME280;52576;53.614;9.894;2022-09-16T01:05:56;100048.44;;;10.71;100.00
21781;BME280;52576;53.614;9.894;2022-09-16T01:06:58;100048.44;;;10.71;100.00
21781;BME280;52576;53.614;9.894;2022-09-16T01:08:02;100044.72;;;10.72;100.00
21781;BME280;52576;53.614;9.894;2022-09-16T01:09:04;100043.91;;;10.72;100.00
21781;BME280;52576;53.614;9.894;2022-09-16T01:10:08;100051.13;;;10.71;100.00
21781;BME280;52576;53.614;9.894;2022-09-16T01:11:12;100043.72;;;10.73;100.00
21781;BME280;52576;53.614;9.894;2022-09-16T01:12:15;100050.91;;;10.73;100.00
21781;BME280;52576;53.614;9.894;2022-09-16T01:13:17;100044.72;;;10.72;100.00
21781;BME280;52576;53.614;9.894;2022-09-16T01:14:22;100050.06;;;10.72;100.00
21781;BME280;52576;53.614;9.894;2022-09-16T01:15:51;100044.72;;;10.72;100.00
21781;BME280;52576;53.614;9.894;2022-09-16T01:17:00;100041.22;;;10.72;100.00
21781;BME280;52576;53.614;9.894;2022-09-16T01:18:10;100046.56;;;10.72;100.00
21781;BME280;52576;53.614;9.894;2022-09-16T01:19:31;100041.22;;;10.72;100.00
21781;BME280;52576;53.614;9.894;2022-09-16T01:22:22;100041.44;;;10.70;100.00
21781;BME280;52576;53.614;9.894;2022-09-16T01:23:45;100034.47;;;10.69;100.00
21781;BME280;52576;53.614;9.894;2022-09-16T01:25:01;100042.94;;;10.66;100.00
21781;BME280;52576;53.614;9.894;2022-09-16T01:26:21;100050.16;;;10.66;100.00
21781;BME280;52576;53.614;9.894;2022-09-16T01:29:33;100040.72;;;10.63;100.00
21781;BME280;52576;53.614;9.894;2022-09-16T01:30:48;100040.91;;;10.62;100.00
21781;BME280;52576;53.614;9.894;2022-09-16T01:31:59;100036.41;;;10.62;100.00
21781;BME280;52576;53.614;9.894;2022-09-16T01:33:07;100034.78;;;10.61;100.00
21781;BME280;52576;53.614;9.894;2022-09-16T01:34:16;100046.28;;;10.62;100.00
21781;BME280;52576;53.614;9.894;2022-09-16T01:35:28;100048.16;;;10.61;100.00
21781;BME280;52576;53.614;9.894;2022-09-16T01:36:44;100045.47;;;10.61;100.00
21781;BME280;52576;53.614;9.894;2022-09-16T01:37:57;100042.81;;;10.61;100.00
21781;BME280;52576;53.614;9.894;2022-09-16T01:39:10;100042.81;;;10.61;100.00
21781;BME280;52576;53.614;9.894;2022-09-16T01:40:18;100045.47;;;10.61;100.00
21781;BME280;52576;53.614;9.894;2022-09-16T01:41:28;100037.44;;;10.61;100.00
21781;BME280;52576;53.614;9.894;2022-09-16T01:42:39;100039.31;;;10.61;100.00
21781;BME280;52576;53.614;9.894;2022-09-16T01:43:51;100036.63;;;10.61;100.00
21781;BME280;52576;53.614;9.894;2022-09-16T01:45:00;100039.53;;;10.59;100.00
21781;BME280;52576;53.614;9.894;2022-09-16T01:46:15;100034.41;;;10.58;100.00
21781;BME280;52576;53.614;9.894;2022-09-16T01:47:22;100034.63;;;10.56;100.00
21781;BME280;52576;53.614;9.894;2022-09-16T01:48:34;100026.00;;;10.54;100.00
21781;BME280;52576;53.614;9.894;2022-09-16T01:49:43;100030.16;;;10.50;100.00
21781;BME280;52576;53.614;9.894;2022-09-16T01:50:52;100026.44;;;10.51;100.00
21781;BME280;52576;53.614;9.894;2022-09-16T01:52:05;100023.19;;;10.49;100.00
21781;BME280;52576;53.614;9.894;2022-09-16T01:53:13;100026.06;;;10.48;100.00
21781;BME280;52576;53.614;9.894;2022-09-16T01:54:22;100018.28;;;10.46;100.00
21781;BME280;52576;53.614;9.894;2022-09-16T01:55:30;100032.66;;;10.45;100.00
21781;BME280;52576;53.614;9.894;2022-09-16T01:56:39;100015.22;;;10.43;100.00
21781;BME280;52576;53.614;9.894;2022-09-16T01:57:48;100017.91;;;10.43;100.00
21781;BME280;52576;53.614;9.894;2022-09-16T01:58:59;100017.53;;;10.39;100.00
21781;BME280;52576;53.614;9.894;2022-09-16T02:00:07;100016.69;;;10.39;100.00
21781;BME280;52576;53.614;9.894;2022-09-16T02:01:17;100014.25;;;10.37;100.00
21781;BME280;52576;53.614;9.894;2022-09-16T02:02:26;100010.97;;;10.35;100.00
21781;BME280;52576;53.614;9.894;2022-09-16T02:03:33;100016.31;;;10.35;100.00
21781;BME280;52576;53.614;9.894;2022-09-16T02:04:41;100014.09;;;10.32;100.00
21781;BME280;52576;53.614;9.894;2022-09-16T02:05:49;100017.59;;;10.33;100.00
21781;BME280;52576;53.614;9.894;2022-09-16T02:06:55;100015.94;;;10.32;100.00
21781;BME280;52576;53.614;9.894;2022-09-16T02:08:00;100012.47;;;10.31;100.00
21781;BME280;52576;53.614;9.894;2022-09-16T02:09:09;100010.59;;;10.32;100.00
21781;BME280;52576;53.614;9.894;2022-09-16T02:10:19;100015.38;;;10.30;100.00
21781;BME280;52576;53.614;9.894;2022-09-16T02:11:25;100014.53;;;10.29;100.00
21781;BME280;52576;53.614;9.894;2022-09-16T02:12:30;100011.66;;;10.31;100.00
21781;BME280;52576;53.614;9.894;2022-09-16T02:13:38;100018.84;;;10.30;100.00
21781;BME280;52576;53.614;9.894;2022-09-16T02:14:42;100018.25;;;10.28;100.00
21781;BME280;52576;53.614;9.894;2022-09-16T02:15:48;100011.88;;;10.29;100.00
21781;BME280;52576;53.614;9.894;2022-09-16T02:16:56;100014.75;;;10.28;100.00
21781;BME280;52576;53.614;9.894;2022-09-16T02:18:04;100015.59;;;10.28;100.00
21781;BME280;52576;53.614;9.894;2022-09-16T02:19:11;100017.44;;;10.28;100.00
21781;BME280;52576;53.614;9.894;2022-09-16T02:20:20;100013.94;;;10.27;100.00
21781;BME280;52576;53.614;9.894;2022-09-16T02:21:26;100007.75;;;10.27;100.00
21781;BME280;52576;53.614;9.894;2022-09-16T02:22:35;100016.59;;;10.27;100.00
21781;BME280;52576;53.614;9.894;2022-09-16T02:23:41;100013.09;;;10.27;100.00
21781;BME280;52576;53.614;9.894;2022-09-16T02:24:47;100012.31;;;10.26;100.00
21781;BME280;52576;53.614;9.894;2022-09-16T02:25:52;100014.16;;;10.26;100.00
21781;BME280;52576;53.614;9.894;2022-09-16T02:26:59;100016.81;;;10.26;100.00
21781;BME280;52576;53.614;9.894;2022-09-16T02:28:07;100015.00;;;10.26;100.00
21781;BME280;52576;53.614;9.894;2022-09-16T02:29:15;100016.59;;;10.27;100.00
21781;BME280;52576;53.614;9.894;2022-09-16T02:30:20;100014.53;;;10.29;100.00
21781;BME280;52576;53.614;9.894;2022-09-16T02:31:26;100020.72;;;10.30;100.00
21781;BME280;52576;53.614;9.894;2022-09-16T02:32:31;100022.09;;;10.32;100.00
21781;BME280;52576;53.614;9.894;2022-09-16T02:33:39;100020.25;;;10.33;100.00
21781;BME280;52576;53.614;9.894;2022-09-16T02:34:45;100012.91;;;10.28;100.00
21781;BME280;52576;53.614;9.894;2022-09-16T02:35:51;100018.41;;;10.33;100.00
21781;BME280;52576;53.614;9.894;2022-09-16T02:36:58;100018.78;;;10.37;100.00
21781;BME280;52576;53.614;9.894;2022-09-16T02:38:06;100011.19;;;10.34;100.00
21781;BME280;52576;53.614;9.894;2022-09-16T02:39:14;100012.19;;;10.39;100.00
21781;BME280;52576;53.614;9.894;2022-09-16T02:40:21;99997.75;;;10.40;100.00
21781;BME280;52576;53.614;9.894;2022-09-16T02:41:25;100001.03;;;10.42;100.00
21781;BME280;52576;53.614;9.894;2022-09-16T02:42:29;100007.22;;;10.43;100.00
21781;BME280;52576;53.614;9.894;2022-09-16T02:43:31;100002.69;;;10.43;100.00
21781;BME280;52576;53.614;9.894;2022-09-16T02:44:35;100005.38;;;10.43;100.00
21781;BME280;52576;53.614;9.894;2022-09-16T02:45:45;100000.03;;;10.43;100.00
21781;BME280;52576;53.614;9.894;2022-09-16T02:46:54;100001.88;;;10.43;100.00
21781;BME280;52576;53.614;9.894;2022-09-16T02:48:03;99997.34;;;10.43;100.00
21781;BME280;52576;53.614;9.894;2022-09-16T02:49:10;99996.28;;;10.44;100.00
21781;BME280;52576;53.614;9.894;2022-09-16T02:50:16;100003.50;;;10.44;100.00
21781;BME280;52576;53.614;9.894;2022-09-16T02:51:29;100001.88;;;10.43;100.00
21781;BME280;52576;53.614;9.894;2022-09-16T02:52:37;100016.84;;;10.44;100.00
21781;BME280;52576;53.614;9.894;2022-09-16T02:53:44;100006.38;;;10.42;100.00
21781;BME280;52576;53.614;9.894;2022-09-16T02:54:51;100003.72;;;10.42;100.00
21781;BME280;52576;53.614;9.894;2022-09-16T02:55:57;100007.44;;;10.41;100.00
21781;BME280;52576;53.614;9.894;2022-09-16T02:57:03;100002.31;;;10.40;100.00
21781;BME280;52576;53.614;9.894;2022-09-16T02:58:06;100007.66;;;10.40;100.00
21781;BME280;52576;53.614;9.894;2022-09-16T02:59:11;100001.72;;;10.38;100.00
21781;BME280;52576;53.614;9.894;2022-09-16T03:00:16;100002.53;;;10.38;100.00
21781;BME280;52576;53.614;9.894;2022-09-16T03:01:19;100002.53;;;10.38;100.00
21781;BME280;52576;53.614;9.894;2022-09-16T03:02:24;100004.38;;;10.38;100.00
21781;BME280;52576;53.614;9.894;2022-09-16T03:03:28;100000.88;;;10.37;100.00
21781;BME280;52576;53.614;9.894;2022-09-16T03:04:33;100010.56;;;10.38;100.00
21781;BME280;52576;53.614;9.894;2022-09-16T03:05:35;100012.19;;;10.39;100.00
21781;BME280;52576;53.614;9.894;2022-09-16T03:06:38;100009.50;;;10.39;100.00
21781;BME280;52576;53.614;9.894;2022-09-16T03:07:41;100007.66;;;10.40;100.00
21781;BME280;52576;53.614;9.894;2022-09-16T03:08:45;100005.00;;;10.40;100.00
21781;BME280;52576;53.614;9.894;2022-09-16T03:09:48;99994.06;;;10.41;100.00
21781;BME280;52576;53.614;9.894;2022-09-16T03:10:53;99997.19;;;10.38;100.00
21781;BME280;52576;53.614;9.894;2022-09-16T03:12:18;99993.47;;;10.39;100.00
21781;BME280;52576;53.614;9.894;2022-09-16T03:13:29;99993.47;;;10.39;100.00
21781;BME280;52576;53.614;9.894;2022-09-16T03:15:07;99989.38;;;10.37;100.00
21781;BME280;52576;53.614;9.894;2022-09-16T03:16:15;99991.47;;;10.35;100.00
21781;BME280;52576;53.614;9.894;2022-09-16T03:17:35;99983.69;;;10.33;100.00
21781;BME280;52576;53.614;9.894;2022-09-16T03:19:02;99998.06;;;10.32;100.00
21781;BME280;52576;53.614;9.894;2022-09-16T03:20:14;99997.44;;;10.30;100.00
21781;BME280;52576;53.614;9.894;2022-09-16T03:21:28;99993.16;;;10.29;100.00
21781;BME280;52576;53.614;9.894;2022-09-16T03:22:41;99990.94;;;10.26;100.00
21781;BME280;52576;53.614;9.894;2022-09-16T03:23:53;99991.72;;;10.27;100.00
21781;BME280;52576;53.614;9.894;2022-09-16T03:25:05;99983.16;;;10.25;100.00
21781;BME280;52576;53.614;9.894;2022-09-16T03:26:19;99990.34;;;10.24;100.00
21781;BME280;52576;53.614;9.894;2022-09-16T03:27:27;99994.03;;;10.23;100.00
21781;BME280;52576;53.614;9.894;2022-09-16T03:28:38;99979.28;;;10.21;100.00
21781;BME280;52576;53.614;9.894;2022-09-16T03:29:47;99986.47;;;10.20;100.00
21781;BME280;52576;53.614;9.894;2022-09-16T03:30:59;99977.84;;;10.18;100.00
21781;BME280;52576;53.614;9.894;2022-09-16T03:32:10;99972.34;;;10.13;100.00
21781;BME280;52576;53.614;9.894;2022-09-16T03:33:21;99978.28;;;10.15;100.00
21781;BME280;52576;53.614;9.894;2022-09-16T03:34:29;99983.41;;;10.17;100.00
21781;BME280;52576;53.614;9.894;2022-09-16T03:35:39;99977.25;;;10.16;100.00
21781;BME280;52576;53.614;9.894;2022-09-16T03:36:48;99981.56;;;10.17;100.00
21781;BME280;52576;53.614;9.894;2022-09-16T03:37:54;99964.69;;;10.17;100.00
21781;BME280;52576;53.614;9.894;2022-09-16T03:38:59;99971.69;;;10.18;100.00
21781;BME280;52576;53.614;9.894;2022-09-16T03:40:08;99965.53;;;10.17;100.00
21781;BME280;52576;53.614;9.894;2022-09-16T03:41:12;99974.38;;;10.18;100.00
21781;BME280;52576;53.614;9.894;2022-09-16T03:42:16;99972.50;;;10.18;100.00
21781;BME280;52576;53.614;9.894;2022-09-16T03:43:18;99965.53;;;10.17;100.00
21781;BME280;52576;53.614;9.894;2022-09-16T03:44:30;99966.34;;;10.18;100.00
21781;BME280;52576;53.614;9.894;2022-09-16T03:45:32;99974.38;;;10.18;100.00
21781;BME280;52576;53.614;9.894;2022-09-16T03:46:35;99969.25;;;10.16;100.00
21781;BME280;52576;53.614;9.894;2022-09-16T03:47:37;99971.91;;;10.16;100.00
21781;BME280;52576;53.614;9.894;2022-09-16T03:48:40;99969.25;;;10.16;100.00
21781;BME280;52576;53.614;9.894;2022-09-16T03:49:44;99970.03;;;10.17;100.00
21781;BME280;52576;53.614;9.894;2022-09-16T03:50:47;99973.53;;;10.17;100.00
21781;BME280;52576;53.614;9.894;2022-09-16T03:51:49;99975.38;;;10.17;100.00
21781;BME280;52576;53.614;9.894;2022-09-16T03:52:52;99972.72;;;10.17;100.00
21781;BME280;52576;53.614;9.894;2022-09-16T03:53:54;99978.66;;;10.19;100.00
21781;BME280;52576;53.614;9.894;2022-09-16T03:54:57;99974.38;;;10.18;100.00
21781;BME280;52576;53.614;9.894;2022-09-16T03:55:59;99977.84;;;10.18;100.00
21781;BME280;52576;53.614;9.894;2022-09-16T03:57:02;99983.78;;;10.20;100.00
21781;BME280;52576;53.614;9.894;2022-09-16T03:58:04;99992.63;;;10.21;100.00
21781;BME280;52576;53.614;9.894;2022-09-16T03:59:07;99994.25;;;10.22;100.00
21781;BME280;52576;53.614;9.894;2022-09-16T04:00:11;99994.25;;;10.22;100.00
21781;BME280;52576;53.614;9.894;2022-09-16T04:01:13;99985.22;;;10.23;100.00
21781;BME280;52576;53.614;9.894;2022-09-16T04:02:17;99987.88;;;10.23;100.00
21781;BME280;52576;53.614;9.894;2022-09-16T04:03:19;99974.31;;;10.24;100.00
21781;BME280;52576;53.614;9.894;2022-09-16T04:04:22;99975.91;;;10.25;100.00
21781;BME280;52576;53.614;9.894;2022-09-16T04:05:25;99974.91;;;10.26;100.00
21781;BME280;52576;53.614;9.894;2022-09-16T04:06:28;99972.22;;;10.26;100.00
21781;BME280;52576;53.614;9.894;2022-09-16T04:07:31;99971.19;;;10.27;100.00
21781;BME280;52576;53.614;9.894;2022-09-16T04:08:34;99971.19;;;10.27;100.00
21781;BME280;52576;53.614;9.894;2022-09-16T04:09:37;99975.69;;;10.27;100.00
21781;BME280;52576;53.614;9.894;2022-09-16T04:10:40;99966.88;;;10.26;100.00
21781;BME280;52576;53.614;9.894;2022-09-16T04:11:43;99973.25;;;10.25;100.00
21781;BME280;52576;53.614;9.894;2022-09-16T04:12:46;99968.13;;;10.24;100.00
21781;BME280;52576;53.614;9.894;2022-09-16T04:13:48;99975.31;;;10.23;100.00
21781;BME280;52576;53.614;9.894;2022-09-16T04:14:51;99968.34;;;10.22;100.00
21781;BME280;52576;53.614;9.894;2022-09-16T04:15:53;99968.34;;;10.22;100.00
21781;BME280;52576;53.614;9.894;2022-09-16T04:16:56;99966.72;;;10.21;100.00
21781;BME280;52576;53.614;9.894;2022-09-16T04:17:59;99968.81;;;10.19;100.00
21781;BME280;52576;53.614;9.894;2022-09-16T04:19:02;99967.97;;;10.19;100.00
21781;BME280;52576;53.614;9.894;2022-09-16T04:20:05;99961.00;;;10.18;100.00
21781;BME280;52576;53.614;9.894;2022-09-16T04:21:11;99961.22;;;10.16;100.00
21781;BME280;52576;53.614;9.894;2022-09-16T04:22:13;99960.63;;;10.14;100.00
21781;BME280;52576;53.614;9.894;2022-09-16T04:23:16;99968.66;;;10.14;100.00
21781;BME280;52576;53.614;9.894;2022-09-16T04:24:18;99963.53;;;10.13;100.00
21781;BME280;52576;53.614;9.894;2022-09-16T04:25:21;99958.41;;;10.11;100.00
21781;BME280;52576;53.614;9.894;2022-09-16T04:26:23;99962.09;;;10.10;100.00
21781;BME280;52576;53.614;9.894;2022-09-16T04:27:26;99959.44;;;10.10;100.00
21781;BME280;52576;53.614;9.894;2022-09-16T04:28:30;99977.53;;;10.08;100.00
21781;BME280;52576;53.614;9.894;2022-09-16T04:29:33;99968.69;;;10.07;100.00
21781;BME280;52576;53.614;9.894;2022-09-16T04:30:35;99965.19;;;10.07;100.00
21781;BME280;52576;53.614;9.894;2022-09-16T04:31:38;99957.41;;;10.05;100.00
21781;BME280;52576;53.614;9.894;2022-09-16T04:32:40;99960.28;;;10.04;100.00
21781;BME280;52576;53.614;9.894;2022-09-16T04:33:43;99953.28;;;10.03;100.00
21781;BME280;52576;53.614;9.894;2022-09-16T04:34:45;99951.06;;;10.00;100.00
21781;BME280;52576;53.614;9.894;2022-09-16T04:35:48;99949.00;;;10.02;100.00
21781;BME280;52576;53.614;9.894;2022-09-16T04:36:52;99955.41;;;10.01;100.00
21781;BME280;52576;53.614;9.894;2022-09-16T04:37:55;99942.03;;;10.01;100.00
21781;BME280;52576;53.614;9.894;2022-09-16T04:38:57;99943.06;;;10.00;100.00
21781;BME280;52576;53.614;9.894;2022-09-16T04:40:00;99951.66;;;10.02;100.00
21781;BME280;52576;53.614;9.894;2022-09-16T04:41:08;99952.72;;;10.01;100.00
21781;BME280;52576;53.614;9.894;2022-09-16T04:42:11;99952.72;;;10.01;100.00
21781;BME280;52576;53.614;9.894;2022-09-16T04:43:13;99950.28;;;9.99;100.00
21781;BME280;52576;53.614;9.894;2022-09-16T04:44:16;99960.72;;;10.01;100.00
21781;BME280;52576;53.614;9.894;2022-09-16T04:45:18;99950.47;;;9.98;100.00
21781;BME280;52576;53.614;9.894;2022-09-16T04:46:21;99955.63;;;9.99;100.00
21781;BME280;52576;53.614;9.894;2022-09-16T04:47:24;99957.22;;;10.00;100.00
21781;BME280;52576;53.614;9.894;2022-09-16T04:48:27;99953.75;;;10.00;100.00
21781;BME280;52576;53.614;9.894;2022-09-16T04:49:29;99958.06;;;10.01;100.00
21781;BME280;52576;53.614;9.894;2022-09-16T04:50:32;99961.53;;;10.01;100.00
21781;BME280;52576;53.614;9.894;2022-09-16T04:51:34;99962.34;;;10.02;100.00
21781;BME280;52576;53.614;9.894;2022-09-16T04:52:39;99957.00;;;10.02;100.00
21781;BME280;52576;53.614;9.894;2022-09-16T04:53:42;99976.75;;;10.01;100.00
21781;BME280;52576;53.614;9.894;2022-09-16T04:54:45;99974.66;;;10.03;100.00
21781;BME280;52576;53.614;9.894;2022-09-16T04:55:47;99974.47;;;10.04;100.00
21781;BME280;52576;53.614;9.894;2022-09-16T04:56:50;99980.59;;;10.05;100.00
21781;BME280;52576;53.614;9.894;2022-09-16T04:57:52;99985.72;;;10.06;100.00
21781;BME280;52576;53.614;9.894;2022-09-16T04:58:58;99973.41;;;10.05;100.00
21781;BME280;52576;53.614;9.894;2022-09-16T05:00:00;99981.22;;;10.07;100.00
21781;BME280;52576;53.614;9.894;2022-09-16T05:01:05;99980.59;;;10.05;100.00
21781;BME280;52576;53.614;9.894;2022-09-16T05:02:08;99984.53;;;10.09;100.00
21781;BME280;52576;53.614;9.894;2022-09-16T05:03:11;99971.56;;;10.06;100.00
21781;BME280;52576;53.614;9.894;2022-09-16T05:04:16;99975.44;;;10.10;100.00
21781;BME280;52576;53.614;9.894;2022-09-16T05:05:19;99963.97;;;10.09;100.00
21781;BME280;52576;53.614;9.894;2022-09-16T05:06:23;99964.78;;;10.10;100.00
21781;BME280;52576;53.614;9.894;2022-09-16T05:07:27;99965.19;;;10.07;100.00
21781;BME280;52576;53.614;9.894;2022-09-16T05:08:31;99968.50;;;10.09;100.00
21781;BME280;52576;53.614;9.894;2022-09-16T05:09:35;99968.50;;;10.09;100.00
21781;BME280;52576;53.614;9.894;2022-09-16T05:10:38;99960.47;;;10.09;100.00
21781;BME280;52576;53.614;9.894;2022-09-16T05:11:41;99964.16;;;10.08;100.00
21781;BME280;52576;53.614;9.894;2022-09-16T05:12:43;99955.56;;;10.06;100.00
21781;BME280;52576;53.614;9.894;2022-09-16T05:13:50;99959.00;;;10.06;100.00
21781;BME280;52576;53.614;9.894;2022-09-16T05:14:52;99952.88;;;10.06;100.00
21781;BME280;52576;53.614;9.894;2022-09-16T05:15:55;99965.63;;;10.04;100.00
21781;BME280;52576;53.614;9.894;2022-09-16T05:16:57;99962.97;;;10.04;100.00
21781;BME280;52576;53.614;9.894;2022-09-16T05:18:00;99960.50;;;10.02;100.00
21781;BME280;52576;53.614;9.894;2022-09-16T05:19:03;99959.47;;;10.03;100.00
21781;BME280;52576;53.614;9.894;2022-09-16T05:20:06;99954.34;;;10.02;100.00
21781;BME280;52576;53.614;9.894;2022-09-16T05:21:10;99951.66;;;10.02;100.00
21781;BME280;52576;53.614;9.894;2022-09-16T05:22:14;99944.72;;;10.01;100.00
21781;BME280;52576;53.614;9.894;2022-09-16T05:23:16;99944.72;;;10.01;100.00
21781;BME280;52576;53.614;9.894;2022-09-16T05:24:20;99947.59;;;9.99;100.00
21781;BME280;52576;53.614;9.894;2022-09-16T05:25:23;99945.72;;;10.00;100.00
21781;BME280;52576;53.614;9.894;2022-09-16T05:26:30;99942.91;;;9.95;100.00
21781;BME280;52576;53.614;9.894;2022-09-16T05:27:33;99945.50;;;10.01;100.00
21781;BME280;52576;53.614;9.894;2022-09-16T05:28:36;99947.16;;;10.02;100.00
21781;BME280;52576;53.614;9.894;2022-09-16T05:29:40;99948.56;;;10.05;100.00
21781;BME280;52576;53.614;9.894;2022-09-16T05:30:42;99945.28;;;10.03;100.00
21781;BME280;52576;53.614;9.894;2022-09-16T05:31:45;99956.16;;;10.08;100.00
21781;BME280;52576;53.614;9.894;2022-09-16T05:32:51;99954.91;;;10.10;100.00
21781;BME280;52576;53.614;9.894;2022-09-16T05:33:56;99946.28;;;10.08;100.00
21781;BME280;52576;53.614;9.894;2022-09-16T05:34:59;99953.22;;;10.16;100.00
21781;BME280;52576;53.614;9.894;2022-09-16T05:36:05;99949.50;;;10.17;100.00
21781;BME280;52576;53.614;9.894;2022-09-16T05:37:08;99950.09;;;10.19;100.00
21781;BME280;52576;53.614;9.894;2022-09-16T05:38:11;99949.06;;;10.20;100.00
21781;BME280;52576;53.614;9.894;2022-09-16T05:39:14;99957.66;;;10.22;100.00
21781;BME280;52576;53.614;9.894;2022-09-16T05:40:26;99953.16;;;10.23;100.00
21781;BME280;52576;53.614;9.894;2022-09-16T05:41:28;99953.94;;;10.23;100.00
21781;BME280;52576;53.614;9.894;2022-09-16T05:42:32;99945.13;;;10.23;100.00
21781;BME280;52576;53.614;9.894;2022-09-16T05:43:57;99945.13;;;10.23;100.00
21781;BME280;52576;53.614;9.894;2022-09-16T05:45:01;99945.94;;;10.23;100.00
21781;BME280;52576;53.614;9.894;2022-09-16T05:46:03;99948.59;;;10.23;100.00